Stations météo

réclame
Mon MeteoGroup
Kinbrace, Grande-Bretagne (99016): Température de l'air & dewpoint: 09.11.2018 08:00:00 - 15.11.2018 08:00:00 (GMT)Kinbrace, Grande-Bretagne (99016): Vitesse du vent & gusts: 09.11.2018 08:00:00 - 15.11.2018 08:00:00 (GMT)Kinbrace, Grande-Bretagne (99016): Direction du vent: 09.11.2018 08:00:00 - 15.11.2018 08:00:00 (GMT)Kinbrace, Grande-Bretagne (99016): Quantités de précipitations: 09.11.2018 08:00:00 - 15.11.2018 08:00:00 (GMT)
Date & Time tt [°C] td [°C] ff [km/h] ff [knt] fx [km/h] fx [knt] dd rr [mm]
15.11.2018 08:00:00 10,4 9,6 9 5 - - S 0,0
15.11.2018 07:00:00 10,7 10,0 5 3 - - E 0,0
15.11.2018 06:00:00 11,0 9,9 4 2 - - S 0,0
15.11.2018 05:00:00 13,0 10,1 16 9 - - SSE 0,0
15.11.2018 04:00:00 12,9 9,9 21 11 - - S 0,0
15.11.2018 03:00:00 13,2 10,0 31 17 - - S 0,0
15.11.2018 02:00:00 13,4 9,9 21 11 - - SE 0,0
15.11.2018 01:00:00 13,7 10,1 29 16 52 28 SE 0,0
15.11.2018 00:00:00 14,0 10,4 29 16 - - SSE 0,0
14.11.2018 23:00:00 14,0 10,4 26 14 - - SE 0,0
14.11.2018 22:00:00 14,0 10,6 29 16 - - SE 0,0
14.11.2018 21:00:00 13,8 10,7 24 13 - - SSE 0,0
14.11.2018 20:00:00 14,0 10,9 28 15 - - SSE 0,0
14.11.2018 19:00:00 13,8 11,2 29 16 - - SSE 0,0
14.11.2018 18:00:00 13,8 11,4 24 13 - - SSE 0,0
14.11.2018 17:00:00 13,7 11,6 22 12 - - SSE 0,0
14.11.2018 16:00:00 12,9 11,2 21 11 - - SSE 0,0
14.11.2018 15:00:00 12,7 10,7 26 14 - - SE 0,0
14.11.2018 14:00:00 12,5 10,3 26 14 - - SE 0,0
14.11.2018 13:00:00 11,5 10,2 15 8 - - SE 0,6
14.11.2018 12:00:00 10,7 9,7 18 10 - - ESE 0,4
14.11.2018 11:00:00 10,7 9,4 22 12 - - SE 0,0
14.11.2018 10:00:00 10,7 9,0 24 13 - - SE 0,2
14.11.2018 09:00:00 10,5 8,8 18 10 - - SE 0,4
14.11.2018 08:00:00 10,5 8,2 18 10 - - SE 0,0
14.11.2018 07:00:00 10,4 7,7 16 9 - - ESE 0,0
14.11.2018 06:00:00 10,8 7,2 18 10 - - SE 0,0
14.11.2018 05:00:00 10,5 7,1 22 12 - - SE 0,0
14.11.2018 04:00:00 10,5 7,1 28 15 - - SE 0,0
14.11.2018 03:00:00 10,3 7,0 28 15 - - SE 0,0
14.11.2018 02:00:00 10,2 6,8 28 15 - - SE 0,0
14.11.2018 01:00:00 9,5 6,0 21 11 - - SE 0,0
14.11.2018 00:00:00 9,1 5,8 28 15 48 26 SE 0,0
13.11.2018 23:00:00 8,2 5,7 29 16 - - SE 0,0
13.11.2018 22:00:00 8,5 4,7 24 13 - - SE 0,0
13.11.2018 21:00:00 8,4 4,8 26 14 - - SSE 0,0
13.11.2018 20:00:00 7,7 4,9 26 14 - - SE 0,0
13.11.2018 19:00:00 6,8 4,0 22 12 - - SSE 0,0
13.11.2018 18:00:00 5,5 3,9 8 4 - - SSE 0,0
13.11.2018 17:00:00 5,4 3,8 2 1 - - SSE 0,0
13.11.2018 16:00:00 7,7 4,5 9 5 - - SSE 0,0
13.11.2018 15:00:00 9,1 4,1 15 8 - - W 0,0
13.11.2018 14:00:00 10,3 6,3 16 9 - - W 0,0
13.11.2018 13:00:00 10,8 6,2 16 9 - - WSW 0,0
13.11.2018 12:00:00 9,6 6,6 11 6 - - WSW 0,0
13.11.2018 11:00:00 9,4 7,0 11 6 - - WSW 0,0
13.11.2018 10:00:00 6,7 5,9 5 3 - - ESE 0,0
13.11.2018 09:00:00 3,9 3,5 8 4 - - ESE 0,0
13.11.2018 08:00:00 3,0 2,6 2 1 - - NW 0,0
13.11.2018 07:00:00 2,8 2,4 2 1 - - SSW 0,0
13.11.2018 06:00:00 2,8 2,5 4 2 - - SSW 0,0
13.11.2018 05:00:00 2,2 2,0 4 2 - - SSE 0,2
13.11.2018 04:00:00 1,8 1,6 4 2 - - ESE 0,0
13.11.2018 03:00:00 -0,1 -0,9 4 2 - - NW 0,0
13.11.2018 02:00:00 3,0 2,6 5 3 - - ENE 0,0
13.11.2018 01:00:00 2,7 1,9 4 2 - - ENE 0,0
13.11.2018 00:00:00 4,8 3,5 4 2 - - SE 0,0
12.11.2018 23:00:00 6,0 5,0 5 3 - - ESE 0,0
12.11.2018 22:00:00 7,3 6,0 15 8 - - ESE 0,0
12.11.2018 21:00:00 7,9 6,3 15 8 - - SE 0,0
12.11.2018 20:00:00 8,2 6,6 16 9 - - ESE 0,8
12.11.2018 19:00:00 8,5 6,5 15 8 - - SE 0,2
12.11.2018 18:00:00 8,9 6,1 16 9 - - ESE 0,0
12.11.2018 17:00:00 8,8 6,1 18 10 - - ESE 0,0
12.11.2018 16:00:00 8,7 5,9 16 9 - - ESE 0,0
12.11.2018 15:00:00 9,4 5,8 13 7 - - SE 0,0
12.11.2018 14:00:00 9,3 6,1 18 10 - - SE 0,0
12.11.2018 13:00:00 9,4 5,9 22 12 - - SSE 0,0
12.11.2018 12:00:00 9,0 5,9 21 11 - - SSE 0,0
12.11.2018 11:00:00 8,8 5,7 21 11 - - SSE 0,0
12.11.2018 10:00:00 7,9 5,3 21 11 - - SE 0,0
12.11.2018 09:00:00 7,6 5,2 18 10 - - SE 0,0
12.11.2018 08:00:00 7,7 4,9 22 12 - - SE 0,0
12.11.2018 07:00:00 7,0 4,7 21 11 - - SE 0,0
12.11.2018 06:00:00 7,0 4,7 18 10 - - ESE 0,0
12.11.2018 05:00:00 6,8 4,8 18 10 - - ESE 0,0
12.11.2018 04:00:00 5,5 4,3 9 5 - - E 0,2
12.11.2018 03:00:00 6,1 4,5 11 6 - - ESE 0,0
12.11.2018 02:00:00 4,1 3,1 11 6 - - ESE 0,0
12.11.2018 01:00:00 3,5 2,4 11 6 - - ESE 0,0
12.11.2018 00:00:00 4,9 3,5 11 6 - - ESE 0,0
11.11.2018 23:00:00 5,3 3,6 13 7 - - SE 0,0
11.11.2018 22:00:00 4,0 2,7 15 8 - - ESE 0,0
11.11.2018 21:00:00 5,3 4,1 13 7 - - ESE 0,0
11.11.2018 20:00:00 4,8 4,1 8 4 - - S 0,0
11.11.2018 19:00:00 7,2 6,3 9 5 - - SE 0,0
11.11.2018 18:00:00 7,1 6,2 15 8 - - ESE 0,2
11.11.2018 17:00:00 7,3 5,5 15 8 - - SE 0,0
11.11.2018 16:00:00 6,8 4,2 16 9 - - ESE 0,0
11.11.2018 15:00:00 7,0 4,3 4 2 - - SSE 0,0
11.11.2018 14:00:00 6,9 4,1 11 6 - - ESE 0,0
11.11.2018 13:00:00 6,5 3,8 5 3 - - SSE 0,0
11.11.2018 12:00:00 8,2 6,2 8 4 - - S 0,2
11.11.2018 11:00:00 3,9 3,4 4 2 - - NW 0,0
11.11.2018 10:00:00 1,0 0,8 2 1 - - SSE 0,0
11.11.2018 09:00:00 -0,5 -0,9 2 1 - - SSW 0,0
11.11.2018 08:00:00 0,0 -0,4 4 2 - - NNW 0,0
11.11.2018 07:00:00 2,0 1,7 9 5 - - E 0,0
11.11.2018 06:00:00 2,5 2,3 2 1 - - SSE 0,0
11.11.2018 05:00:00 2,8 2,3 5 3 - - ESE 0,0
11.11.2018 04:00:00 4,4 3,8 4 2 - - S 0,0
11.11.2018 03:00:00 5,4 4,9 4 2 - - E 0,0
11.11.2018 02:00:00 5,7 5,2 5 3 - - S 0,0
11.11.2018 01:00:00 5,8 5,2 4 2 - - N 5,6
11.11.2018 00:00:00 6,4 5,8 5 3 - - NW 3,4
10.11.2018 23:00:00 7,4 5,9 9 5 - - SE 0,6
10.11.2018 22:00:00 7,4 5,5 13 7 - - SE 0,0
10.11.2018 21:00:00 7,3 4,9 16 9 - - ESE 0,0
10.11.2018 20:00:00 5,6 3,3 16 9 - - ESE 0,0
10.11.2018 19:00:00 5,7 2,9 8 4 - - ESE 0,0
10.11.2018 18:00:00 5,4 1,4 4 2 - - ENE 0,0
10.11.2018 17:00:00 6,6 2,6 22 12 - - SSE 0,0
10.11.2018 16:00:00 8,1 2,4 21 11 - - S 0,0
10.11.2018 15:00:00 9,1 2,9 18 10 - - S 0,0
10.11.2018 14:00:00 9,4 3,6 21 11 - - S 0,0
10.11.2018 13:00:00 9,0 4,0 21 11 - - S 0,0
10.11.2018 12:00:00 9,8 4,7 22 12 - - S 0,0
10.11.2018 11:00:00 9,6 4,9 24 13 - - S 0,0
10.11.2018 10:00:00 9,1 5,6 18 10 - - SSE 0,0
10.11.2018 09:00:00 8,1 5,6 21 11 - - SSE 0,0
10.11.2018 08:00:00 8,3 6,5 16 9 - - SSE 0,0
10.11.2018 07:00:00 8,5 6,0 22 12 - - SE 0,0
10.11.2018 06:00:00 8,9 6,3 31 17 - - SE 0,0
10.11.2018 05:00:00 9,1 7,3 26 14 48 26 SE 0,0
10.11.2018 04:00:00 9,4 7,9 34 18 48 26 SE 0,0
10.11.2018 03:00:00 9,1 7,9 35 19 54 29 SE 1,6
10.11.2018 02:00:00 8,8 7,5 31 17 55 30 SE 2,4
10.11.2018 01:00:00 9,1 6,9 37 20 65 35 SE 0,4
10.11.2018 00:00:00 9,7 7,5 37 20 63 34 SE 0,4
09.11.2018 23:00:00 9,9 8,1 41 22 76 41 SE 0,0
09.11.2018 22:00:00 9,6 8,4 42 23 72 39 SE 0,8
09.11.2018 21:00:00 9,7 8,0 39 21 67 36 SE 0,0
09.11.2018 20:00:00 9,7 7,4 37 20 65 35 SE 0,0
09.11.2018 19:00:00 9,6 7,0 39 21 72 39 SE 0,0
09.11.2018 18:00:00 9,6 6,8 44 24 70 38 SE 0,0
09.11.2018 17:00:00 9,7 6,7 41 22 70 38 SE 0,0
09.11.2018 16:00:00 9,6 6,1 35 19 59 32 SE 0,0
09.11.2018 15:00:00 9,5 5,9 37 20 59 32 SE 0,0
09.11.2018 14:00:00 9,7 5,6 39 21 57 31 SE 0,0
09.11.2018 13:00:00 9,8 6,2 41 22 70 38 SE 0,0
09.11.2018 12:00:00 9,3 6,1 41 22 59 32 SSE 0,0
09.11.2018 11:00:00 8,7 6,3 35 19 57 31 SE 0,0
09.11.2018 10:00:00 8,2 6,4 35 19 55 30 SE 0,2
09.11.2018 09:00:00 8,4 6,2 34 18 50 27 SE 0,0
09.11.2018 08:00:00 8,9 6,1 29 16 54 29 SE 0,0

tt = Température de l'air
td = dewpoint
ff = Vitesse du vent
fx = gusts
dd = Direction du vent
rr = Quantités de précipitations

stations d'obs. à proximité